Madison, Indiana
Current Conditions -  °F | °C
As of 9:32 AM on Thursday 29 Jan 2015 (Local Time) from KIMS Reporting Station
Clear Clear  
Wind Chill: 35°   Ceiling: Unl
Heat Index: 43°   Visibility: 10mi
Dew Point: 32°   Wind: 15mph
Humidity: 66%   Direction: 190°S
Pressure: 29.88"   Gusts: NA
Location:  38.74°N, 85.38°W
Report Text: KIMS 291432Z AUTO 19013KT 10SM CLR 06/00 A2988 RMK AO1
Loading
Personal Weather Stations






























Interactive Weather Map New forecast layout! Learn more

10-Day Weather Forecast

Advertisements
Track Severe Weather on mobile